sensor_id;sensor_type;location;lat;lon;timestamp;P1;durP1;ratioP1;P2;durP2;ratioP2
27722;SDS011;15123;-37.794;175.246;2022-11-20T00:01:56;5.07;;;0.70;;
27722;SDS011;15123;-37.794;175.246;2022-11-20T00:04:26;5.63;;;0.80;;
27722;SDS011;15123;-37.794;175.246;2022-11-20T00:06:58;8.05;;;1.27;;
27722;SDS011;15123;-37.794;175.246;2022-11-20T00:09:29;7.97;;;1.10;;
27722;SDS011;15123;-37.794;175.246;2022-11-20T00:12:00;5.70;;;0.90;;
27722;SDS011;15123;-37.794;175.246;2022-11-20T00:14:31;5.88;;;1.00;;
27722;SDS011;15123;-37.794;175.246;2022-11-20T00:17:03;8.15;;;1.10;;
27722;SDS011;15123;-37.794;175.246;2022-11-20T00:19:34;8.88;;;0.90;;
27722;SDS011;15123;-37.794;175.246;2022-11-20T00:22:05;4.82;;;0.70;;
27722;SDS011;15123;-37.794;175.246;2022-11-20T00:24:36;5.85;;;1.00;;
27722;SDS011;15123;-37.794;175.246;2022-11-20T00:27:10;7.65;;;1.00;;
27722;SDS011;15123;-37.794;175.246;2022-11-20T00:29:41;9.50;;;1.08;;
27722;SDS011;15123;-37.794;175.246;2022-11-20T00:32:13;6.10;;;1.00;;
27722;SDS011;15123;-37.794;175.246;2022-11-20T00:34:43;7.95;;;1.08;;
27722;SDS011;15123;-37.794;175.246;2022-11-20T00:37:14;8.10;;;1.15;;
27722;SDS011;15123;-37.794;175.246;2022-11-20T00:39:46;7.82;;;1.23;;
27722;SDS011;15123;-37.794;175.246;2022-11-20T00:42:17;10.25;;;1.45;;
27722;SDS011;15123;-37.794;175.246;2022-11-20T00:44:48;9.35;;;1.55;;
27722;SDS011;15123;-37.794;175.246;2022-11-20T00:47:19;10.40;;;1.40;;
27722;SDS011;15123;-37.794;175.246;2022-11-20T00:49:50;8.23;;;1.30;;
27722;SDS011;15123;-37.794;175.246;2022-11-20T00:52:21;6.90;;;1.07;;
27722;SDS011;15123;-37.794;175.246;2022-11-20T00:54:52;7.63;;;1.10;;
27722;SDS011;15123;-37.794;175.246;2022-11-20T00:57:23;8.45;;;1.08;;
27722;SDS011;15123;-37.794;175.246;2022-11-20T00:59:54;9.00;;;1.15;;
27722;SDS011;15123;-37.794;175.246;2022-11-20T01:02:25;10.38;;;1.50;;
27722;SDS011;15123;-37.794;175.246;2022-11-20T01:04:56;11.40;;;1.60;;
27722;SDS011;15123;-37.794;175.246;2022-11-20T01:07:29;7.97;;;1.30;;
27722;SDS011;15123;-37.794;175.246;2022-11-20T01:10:00;9.02;;;1.42;;
27722;SDS011;15123;-37.794;175.246;2022-11-20T01:12:31;9.43;;;1.20;;
27722;SDS011;15123;-37.794;175.246;2022-11-20T01:15:03;6.97;;;1.17;;
27722;SDS011;15123;-37.794;175.246;2022-11-20T01:17:34;9.38;;;1.30;;
27722;SDS011;15123;-37.794;175.246;2022-11-20T01:20:06;8.30;;;1.30;;
27722;SDS011;15123;-37.794;175.246;2022-11-20T01:22:37;8.35;;;1.30;;
27722;SDS011;15123;-37.794;175.246;2022-11-20T01:25:08;7.78;;;1.05;;
27722;SDS011;15123;-37.794;175.246;2022-11-20T01:27:39;7.55;;;1.10;;
27722;SDS011;15123;-37.794;175.246;2022-11-20T01:30:11;9.65;;;1.30;;
27722;SDS011;15123;-37.794;175.246;2022-11-20T01:32:42;7.38;;;1.15;;
27722;SDS011;15123;-37.794;175.246;2022-11-20T01:35:13;6.68;;;1.13;;
27722;SDS011;15123;-37.794;175.246;2022-11-20T01:37:44;5.43;;;1.05;;
27722;SDS011;15123;-37.794;175.246;2022-11-20T01:40:16;7.63;;;1.00;;
27722;SDS011;15123;-37.794;175.246;2022-11-20T01:42:47;6.93;;;1.10;;
27722;SDS011;15123;-37.794;175.246;2022-11-20T01:48:36;6.13;;;1.00;;
27722;SDS011;15123;-37.794;175.246;2022-11-20T01:56:46;7.00;;;1.10;;
27722;SDS011;15123;-37.794;175.246;2022-11-20T01:59:18;5.18;;;0.80;;
27722;SDS011;15123;-37.794;175.246;2022-11-20T02:01:50;8.43;;;1.15;;
27722;SDS011;15123;-37.794;175.246;2022-11-20T02:04:21;5.60;;;0.70;;
27722;SDS011;15123;-37.794;175.246;2022-11-20T02:07:00;4.90;;;0.70;;
27722;SDS011;15123;-37.794;175.246;2022-11-20T02:09:31;7.07;;;0.80;;
27722;SDS011;15123;-37.794;175.246;2022-11-20T02:12:03;4.13;;;0.70;;
27722;SDS011;15123;-37.794;175.246;2022-11-20T02:14:34;3.65;;;0.60;;
27722;SDS011;15123;-37.794;175.246;2022-11-20T02:17:05;4.40;;;0.68;;
27722;SDS011;15123;-37.794;175.246;2022-11-20T02:19:36;4.50;;;0.70;;
27722;SDS011;15123;-37.794;175.246;2022-11-20T02:24:59;4.95;;;0.70;;
27722;SDS011;15123;-37.794;175.246;2022-11-20T02:27:30;5.15;;;0.63;;
27722;SDS011;15123;-37.794;175.246;2022-11-20T02:30:05;3.95;;;0.57;;
27722;SDS011;15123;-37.794;175.246;2022-11-20T02:32:40;4.32;;;0.63;;
27722;SDS011;15123;-37.794;175.246;2022-11-20T02:37:52;3.65;;;0.60;;
27722;SDS011;15123;-37.794;175.246;2022-11-20T02:40:25;4.45;;;0.70;;
27722;SDS011;15123;-37.794;175.246;2022-11-20T02:42:56;3.67;;;0.80;;
27722;SDS011;15123;-37.794;175.246;2022-11-20T02:47:58;2.53;;;0.50;;
27722;SDS011;15123;-37.794;175.246;2022-11-20T02:50:29;5.35;;;0.90;;
27722;SDS011;15123;-37.794;175.246;2022-11-20T02:53:00;3.78;;;0.60;;
27722;SDS011;15123;-37.794;175.246;2022-11-20T02:55:31;3.77;;;0.70;;
27722;SDS011;15123;-37.794;175.246;2022-11-20T02:58:02;3.97;;;0.63;;
27722;SDS011;15123;-37.794;175.246;2022-11-20T03:00:33;3.75;;;0.68;;
27722;SDS011;15123;-37.794;175.246;2022-11-20T03:03:05;3.95;;;0.77;;
27722;SDS011;15123;-37.794;175.246;2022-11-20T03:05:36;5.53;;;0.80;;
27722;SDS011;15123;-37.794;175.246;2022-11-20T03:08:07;6.70;;;0.75;;
27722;SDS011;15123;-37.794;175.246;2022-11-20T03:10:38;7.77;;;1.00;;
27722;SDS011;15123;-37.794;175.246;2022-11-20T03:13:08;4.73;;;0.90;;
27722;SDS011;15123;-37.794;175.246;2022-11-20T03:15:39;7.80;;;1.30;;
27722;SDS011;15123;-37.794;175.246;2022-11-20T03:20:43;5.60;;;0.90;;
27722;SDS011;15123;-37.794;175.246;2022-11-20T03:23:14;9.77;;;1.10;;
27722;SDS011;15123;-37.794;175.246;2022-11-20T03:25:45;6.93;;;0.90;;
27722;SDS011;15123;-37.794;175.246;2022-11-20T03:28:16;9.00;;;1.30;;
27722;SDS011;15123;-37.794;175.246;2022-11-20T03:30:47;5.13;;;0.90;;
27722;SDS011;15123;-37.794;175.246;2022-11-20T03:33:18;5.18;;;0.80;;
27722;SDS011;15123;-37.794;175.246;2022-11-20T03:38:20;7.13;;;1.05;;
27722;SDS011;15123;-37.794;175.246;2022-11-20T03:40:57;7.05;;;1.20;;
27722;SDS011;15123;-37.794;175.246;2022-11-20T03:43:32;6.32;;;1.00;;
27722;SDS011;15123;-37.794;175.246;2022-11-20T03:46:03;8.43;;;1.42;;
27722;SDS011;15123;-37.794;175.246;2022-11-20T03:48:35;5.15;;;1.10;;
27722;SDS011;15123;-37.794;175.246;2022-11-20T03:51:07;5.82;;;0.90;;
27722;SDS011;15123;-37.794;175.246;2022-11-20T03:53:42;5.25;;;1.00;;
27722;SDS011;15123;-37.794;175.246;2022-11-20T03:56:15;7.78;;;1.10;;
27722;SDS011;15123;-37.794;175.246;2022-11-20T03:58:47;6.65;;;1.20;;
27722;SDS011;15123;-37.794;175.246;2022-11-20T04:01:22;6.68;;;1.42;;
27722;SDS011;15123;-37.794;175.246;2022-11-20T04:03:55;6.72;;;1.10;;
27722;SDS011;15123;-37.794;175.246;2022-11-20T04:06:30;8.23;;;0.93;;
27722;SDS011;15123;-37.794;175.246;2022-11-20T04:09:06;5.28;;;0.90;;
27722;SDS011;15123;-37.794;175.246;2022-11-20T04:11:37;7.65;;;1.08;;
27722;SDS011;15123;-37.794;175.246;2022-11-20T04:14:13;7.45;;;1.23;;
27722;SDS011;15123;-37.794;175.246;2022-11-20T04:16:45;7.18;;;1.23;;
27722;SDS011;15123;-37.794;175.246;2022-11-20T04:19:16;8.48;;;1.30;;
27722;SDS011;15123;-37.794;175.246;2022-11-20T04:21:48;6.05;;;1.08;;
27722;SDS011;15123;-37.794;175.246;2022-11-20T04:24:19;6.82;;;0.98;;
27722;SDS011;15123;-37.794;175.246;2022-11-20T04:26:49;10.32;;;1.05;;
27722;SDS011;15123;-37.794;175.246;2022-11-20T04:29:20;8.60;;;1.10;;
27722;SDS011;15123;-37.794;175.246;2022-11-20T04:31:52;6.75;;;1.00;;
27722;SDS011;15123;-37.794;175.246;2022-11-20T04:34:23;7.85;;;1.00;;
27722;SDS011;15123;-37.794;175.246;2022-11-20T04:36:54;5.43;;;0.93;;
27722;SDS011;15123;-37.794;175.246;2022-11-20T04:39:24;8.02;;;1.15;;
27722;SDS011;15123;-37.794;175.246;2022-11-20T04:44:50;9.50;;;1.70;;
27722;SDS011;15123;-37.794;175.246;2022-11-20T04:47:21;10.18;;;1.70;;
27722;SDS011;15123;-37.794;175.246;2022-11-20T04:52:23;11.00;;;1.88;;
27722;SDS011;15123;-37.794;175.246;2022-11-20T04:54:54;8.50;;;1.67;;
27722;SDS011;15123;-37.794;175.246;2022-11-20T04:57:25;8.20;;;1.35;;
27722;SDS011;15123;-37.794;175.246;2022-11-20T04:59:56;9.32;;;1.33;;
27722;SDS011;15123;-37.794;175.246;2022-11-20T05:02:30;8.80;;;1.40;;
27722;SDS011;15123;-37.794;175.246;2022-11-20T05:07:32;8.95;;;1.30;;
27722;SDS011;15123;-37.794;175.246;2022-11-20T05:10:03;5.77;;;1.17;;
27722;SDS011;15123;-37.794;175.246;2022-11-20T05:12:34;8.23;;;1.40;;
27722;SDS011;15123;-37.794;175.246;2022-11-20T05:15:05;6.47;;;1.00;;
27722;SDS011;15123;-37.794;175.246;2022-11-20T05:17:37;9.77;;;1.30;;
27722;SDS011;15123;-37.794;175.246;2022-11-20T05:20:08;11.38;;;1.50;;
27722;SDS011;15123;-37.794;175.246;2022-11-20T05:22:42;7.18;;;1.20;;
27722;SDS011;15123;-37.794;175.246;2022-11-20T05:25:13;9.80;;;1.20;;
27722;SDS011;15123;-37.794;175.246;2022-11-20T05:27:44;9.95;;;1.55;;
27722;SDS011;15123;-37.794;175.246;2022-11-20T05:30:15;5.30;;;1.10;;
27722;SDS011;15123;-37.794;175.246;2022-11-20T05:32:46;7.20;;;1.10;;
27722;SDS011;15123;-37.794;175.246;2022-11-20T05:35:17;8.20;;;1.27;;
27722;SDS011;15123;-37.794;175.246;2022-11-20T05:37:48;6.78;;;1.10;;
27722;SDS011;15123;-37.794;175.246;2022-11-20T05:40:19;7.57;;;1.23;;
27722;SDS011;15123;-37.794;175.246;2022-11-20T05:42:51;7.28;;;1.40;;
27722;SDS011;15123;-37.794;175.246;2022-11-20T05:45:22;8.15;;;1.38;;
27722;SDS011;15123;-37.794;175.246;2022-11-20T05:47:53;9.33;;;2.13;;
27722;SDS011;15123;-37.794;175.246;2022-11-20T05:50:27;13.02;;;2.00;;
27722;SDS011;15123;-37.794;175.246;2022-11-20T05:52:59;10.45;;;2.50;;
27722;SDS011;15123;-37.794;175.246;2022-11-20T05:55:30;7.68;;;1.13;;
27722;SDS011;15123;-37.794;175.246;2022-11-20T05:58:01;10.40;;;1.33;;
27722;SDS011;15123;-37.794;175.246;2022-11-20T06:00:32;8.02;;;1.25;;
27722;SDS011;15123;-37.794;175.246;2022-11-20T06:03:03;10.02;;;1.30;;
27722;SDS011;15123;-37.794;175.246;2022-11-20T06:05:34;10.18;;;1.45;;
27722;SDS011;15123;-37.794;175.246;2022-11-20T06:08:04;10.47;;;1.43;;
27722;SDS011;15123;-37.794;175.246;2022-11-20T06:10:35;10.25;;;3.58;;
27722;SDS011;15123;-37.794;175.246;2022-11-20T06:13:06;9.30;;;1.60;;
27722;SDS011;15123;-37.794;175.246;2022-11-20T06:15:37;8.83;;;1.50;;
27722;SDS011;15123;-37.794;175.246;2022-11-20T06:18:08;9.13;;;1.15;;
27722;SDS011;15123;-37.794;175.246;2022-11-20T06:20:39;7.72;;;1.30;;
27722;SDS011;15123;-37.794;175.246;2022-11-20T06:23:10;9.88;;;1.88;;
27722;SDS011;15123;-37.794;175.246;2022-11-20T06:25:42;8.98;;;1.25;;
27722;SDS011;15123;-37.794;175.246;2022-11-20T06:28:13;9.52;;;2.42;;
27722;SDS011;15123;-37.794;175.246;2022-11-20T06:30:44;8.32;;;1.55;;
27722;SDS011;15123;-37.794;175.246;2022-11-20T06:33:15;7.72;;;1.42;;
27722;SDS011;15123;-37.794;175.246;2022-11-20T06:35:47;9.32;;;1.42;;
27722;SDS011;15123;-37.794;175.246;2022-11-20T06:38:26;9.43;;;1.20;;
27722;SDS011;15123;-37.794;175.246;2022-11-20T06:40:58;7.22;;;1.00;;
27722;SDS011;15123;-37.794;175.246;2022-11-20T06:43:29;9.20;;;1.17;;
27722;SDS011;15123;-37.794;175.246;2022-11-20T06:46:00;9.27;;;1.17;;
27722;SDS011;15123;-37.794;175.246;2022-11-20T06:51:03;11.02;;;1.23;;
27722;SDS011;15123;-37.794;175.246;2022-11-20T06:53:35;9.60;;;1.38;;
27722;SDS011;15123;-37.794;175.246;2022-11-20T06:56:07;9.60;;;1.75;;
27722;SDS011;15123;-37.794;175.246;2022-11-20T06:58:38;7.90;;;1.38;;
27722;SDS011;15123;-37.794;175.246;2022-11-20T07:01:10;9.60;;;1.30;;
27722;SDS011;15123;-37.794;175.246;2022-11-20T07:03:42;5.70;;;1.05;;
27722;SDS011;15123;-37.794;175.246;2022-11-20T07:06:21;8.95;;;1.13;;
27722;SDS011;15123;-37.794;175.246;2022-11-20T07:08:52;9.00;;;1.23;;
27722;SDS011;15123;-37.794;175.246;2022-11-20T07:11:23;8.90;;;1.20;;
27722;SDS011;15123;-37.794;175.246;2022-11-20T07:13:54;8.02;;;1.40;;
27722;SDS011;15123;-37.794;175.246;2022-11-20T07:16:26;9.27;;;1.20;;
27722;SDS011;15123;-37.794;175.246;2022-11-20T07:18:57;10.77;;;1.20;;
27722;SDS011;15123;-37.794;175.246;2022-11-20T07:21:31;8.60;;;1.30;;
27722;SDS011;15123;-37.794;175.246;2022-11-20T07:24:02;10.48;;;1.35;;
27722;SDS011;15123;-37.794;175.246;2022-11-20T07:26:33;7.93;;;1.20;;
27722;SDS011;15123;-37.794;175.246;2022-11-20T07:29:05;6.90;;;1.13;;
27722;SDS011;15123;-37.794;175.246;2022-11-20T07:31:36;7.32;;;1.10;;
27722;SDS011;15123;-37.794;175.246;2022-11-20T07:34:07;10.00;;;1.70;;
27722;SDS011;15123;-37.794;175.246;2022-11-20T07:36:39;8.70;;;1.20;;
27722;SDS011;15123;-37.794;175.246;2022-11-20T07:39:10;8.25;;;1.30;;
27722;SDS011;15123;-37.794;175.246;2022-11-20T07:41:41;6.25;;;1.20;;
27722;SDS011;15123;-37.794;175.246;2022-11-20T07:44:15;8.90;;;1.10;;
27722;SDS011;15123;-37.794;175.246;2022-11-20T07:46:46;8.13;;;1.20;;
27722;SDS011;15123;-37.794;175.246;2022-11-20T07:49:17;6.28;;;1.10;;
27722;SDS011;15123;-37.794;175.246;2022-11-20T07:51:51;9.75;;;1.83;;
27722;SDS011;15123;-37.794;175.246;2022-11-20T07:54:33;7.43;;;1.30;;
27722;SDS011;15123;-37.794;175.246;2022-11-20T07:57:04;7.72;;;1.48;;
27722;SDS011;15123;-37.794;175.246;2022-11-20T07:59:34;10.23;;;1.53;;
27722;SDS011;15123;-37.794;175.246;2022-11-20T08:02:05;8.25;;;1.35;;
27722;SDS011;15123;-37.794;175.246;2022-11-20T08:04:39;7.45;;;1.35;;
27722;SDS011;15123;-37.794;175.246;2022-11-20T08:07:10;6.72;;;1.45;;
27722;SDS011;15123;-37.794;175.246;2022-11-20T08:09:41;7.28;;;1.45;;
27722;SDS011;15123;-37.794;175.246;2022-11-20T08:12:19;5.53;;;1.20;;
27722;SDS011;15123;-37.794;175.246;2022-11-20T08:15:09;7.93;;;1.10;;
27722;SDS011;15123;-37.794;175.246;2022-11-20T08:17:41;8.57;;;1.30;;
27722;SDS011;15123;-37.794;175.246;2022-11-20T08:20:32;7.50;;;1.50;;
27722;SDS011;15123;-37.794;175.246;2022-11-20T08:23:05;8.73;;;1.77;;
27722;SDS011;15123;-37.794;175.246;2022-11-20T08:25:37;9.82;;;1.50;;
27722;SDS011;15123;-37.794;175.246;2022-11-20T08:28:11;7.13;;;1.35;;
27722;SDS011;15123;-37.794;175.246;2022-11-20T08:30:49;9.98;;;1.45;;
27722;SDS011;15123;-37.794;175.246;2022-11-20T08:33:20;6.72;;;1.30;;
27722;SDS011;15123;-37.794;175.246;2022-11-20T08:35:51;10.40;;;1.52;;
27722;SDS011;15123;-37.794;175.246;2022-11-20T08:38:22;8.00;;;1.17;;
27722;SDS011;15123;-37.794;175.246;2022-11-20T08:40:55;6.57;;;1.10;;
27722;SDS011;15123;-37.794;175.246;2022-11-20T08:43:46;8.73;;;1.27;;
27722;SDS011;15123;-37.794;175.246;2022-11-20T08:46:17;7.55;;;1.30;;
27722;SDS011;15123;-37.794;175.246;2022-11-20T08:48:48;9.60;;;1.30;;
27722;SDS011;15123;-37.794;175.246;2022-11-20T08:51:19;8.25;;;1.38;;
27722;SDS011;15123;-37.794;175.246;2022-11-20T08:53:51;9.70;;;1.50;;
27722;SDS011;15123;-37.794;175.246;2022-11-20T08:56:23;11.20;;;1.42;;
27722;SDS011;15123;-37.794;175.246;2022-11-20T08:58:53;9.68;;;1.30;;
27722;SDS011;15123;-37.794;175.246;2022-11-20T09:01:44;12.77;;;2.00;;
27722;SDS011;15123;-37.794;175.246;2022-11-20T09:04:15;9.60;;;1.25;;
27722;SDS011;15123;-37.794;175.246;2022-11-20T09:06:48;9.60;;;1.40;;
27722;SDS011;15123;-37.794;175.246;2022-11-20T09:09:20;10.88;;;1.60;;
27722;SDS011;15123;-37.794;175.246;2022-11-20T09:11:51;11.13;;;1.60;;
27722;SDS011;15123;-37.794;175.246;2022-11-20T09:14:22;11.05;;;1.48;;
27722;SDS011;15123;-37.794;175.246;2022-11-20T09:16:58;11.48;;;1.55;;
27722;SDS011;15123;-37.794;175.246;2022-11-20T09:19:30;10.35;;;1.35;;
27722;SDS011;15123;-37.794;175.246;2022-11-20T09:22:05;12.88;;;1.50;;
27722;SDS011;15123;-37.794;175.246;2022-11-20T09:24:36;7.65;;;1.20;;
27722;SDS011;15123;-37.794;175.246;2022-11-20T09:27:07;9.95;;;1.52;;
27722;SDS011;15123;-37.794;175.246;2022-11-20T09:29:38;8.55;;;1.50;;
27722;SDS011;15123;-37.794;175.246;2022-11-20T09:32:09;9.00;;;1.30;;
27722;SDS011;15123;-37.794;175.246;2022-11-20T09:34:39;7.67;;;1.20;;
27722;SDS011;15123;-37.794;175.246;2022-11-20T09:37:10;7.43;;;1.13;;
27722;SDS011;15123;-37.794;175.246;2022-11-20T09:39:41;9.57;;;1.43;;
27722;SDS011;15123;-37.794;175.246;2022-11-20T09:44:56;10.10;;;1.48;;
27722;SDS011;15123;-37.794;175.246;2022-11-20T09:53:58;9.40;;;1.50;;
27722;SDS011;15123;-37.794;175.246;2022-11-20T09:56:26;8.50;;;1.50;;
27722;SDS011;15123;-37.794;175.246;2022-11-20T09:58:59;12.32;;;2.15;;
27722;SDS011;15123;-37.794;175.246;2022-11-20T10:01:35;11.50;;;1.80;;
27722;SDS011;15123;-37.794;175.246;2022-11-20T10:10:00;15.18;;;1.80;;
27722;SDS011;15123;-37.794;175.246;2022-11-20T10:15:47;11.52;;;1.60;;
27722;SDS011;15123;-37.794;175.246;2022-11-20T10:27:40;11.35;;;1.60;;
27722;SDS011;15123;-37.794;175.246;2022-11-20T10:30:12;10.52;;;1.52;;
27722;SDS011;15123;-37.794;175.246;2022-11-20T10:32:52;9.93;;;1.80;;
27722;SDS011;15123;-37.794;175.246;2022-11-20T10:35:39;9.82;;;1.67;;
27722;SDS011;15123;-37.794;175.246;2022-11-20T10:38:16;9.05;;;1.58;;
27722;SDS011;15123;-37.794;175.246;2022-11-20T10:40:54;11.93;;;1.48;;
27722;SDS011;15123;-37.794;175.246;2022-11-20T10:43:48;9.82;;;1.52;;
27722;SDS011;15123;-37.794;175.246;2022-11-20T10:46:22;9.38;;;1.75;;
27722;SDS011;15123;-37.794;175.246;2022-11-20T10:48:53;12.48;;;1.80;;
27722;SDS011;15123;-37.794;175.246;2022-11-20T10:57:00;10.90;;;1.58;;
27722;SDS011;15123;-37.794;175.246;2022-11-20T11:02:42;15.07;;;1.90;;
27722;SDS011;15123;-37.794;175.246;2022-11-20T11:07:57;11.00;;;1.80;;
27722;SDS011;15123;-37.794;175.246;2022-11-20T11:13:21;11.07;;;1.50;;
27722;SDS011;15123;-37.794;175.246;2022-11-20T11:15:56;7.40;;;1.38;;
27722;SDS011;15123;-37.794;175.246;2022-11-20T11:18:28;10.82;;;1.70;;
27722;SDS011;15123;-37.794;175.246;2022-11-20T11:21:04;9.50;;;1.60;;
27722;SDS011;15123;-37.794;175.246;2022-11-20T11:23:41;11.15;;;1.77;;
27722;SDS011;15123;-37.794;175.246;2022-11-20T11:26:20;15.73;;;1.77;;
27722;SDS011;15123;-37.794;175.246;2022-11-20T11:28:58;9.30;;;1.55;;
27722;SDS011;15123;-37.794;175.246;2022-11-20T11:31:31;12.98;;;1.60;;
27722;SDS011;15123;-37.794;175.246;2022-11-20T11:34:13;11.15;;;1.75;;
27722;SDS011;15123;-37.794;175.246;2022-11-20T11:39:29;14.93;;;1.63;;
27722;SDS011;15123;-37.794;175.246;2022-11-20T11:42:01;13.80;;;2.08;;
27722;SDS011;15123;-37.794;175.246;2022-11-20T11:44:33;10.98;;;1.80;;
27722;SDS011;15123;-37.794;175.246;2022-11-20T11:47:24;14.45;;;1.90;;
27722;SDS011;15123;-37.794;175.246;2022-11-20T11:50:13;13.73;;;1.70;;
27722;SDS011;15123;-37.794;175.246;2022-11-20T11:52:56;12.05;;;1.73;;
27722;SDS011;15123;-37.794;175.246;2022-11-20T12:01:34;14.10;;;2.00;;
27722;SDS011;15123;-37.794;175.246;2022-11-20T12:04:20;12.82;;;1.70;;
27722;SDS011;15123;-37.794;175.246;2022-11-20T12:10:19;8.52;;;1.58;;
27722;SDS011;15123;-37.794;175.246;2022-11-20T12:13:00;13.80;;;1.98;;
27722;SDS011;15123;-37.794;175.246;2022-11-20T12:15:34;11.95;;;1.60;;
27722;SDS011;15123;-37.794;175.246;2022-11-20T12:18:08;13.45;;;1.80;;
27722;SDS011;15123;-37.794;175.246;2022-11-20T12:20:50;13.05;;;1.58;;
27722;SDS011;15123;-37.794;175.246;2022-11-20T12:26:17;14.50;;;1.65;;
27722;SDS011;15123;-37.794;175.246;2022-11-20T12:32:05;12.07;;;1.73;;
27722;SDS011;15123;-37.794;175.246;2022-11-20T12:40:20;11.98;;;1.60;;
27722;SDS011;15123;-37.794;175.246;2022-11-20T12:43:15;9.52;;;1.80;;
27722;SDS011;15123;-37.794;175.246;2022-11-20T12:54:46;12.80;;;1.70;;
27722;SDS011;15123;-37.794;175.246;2022-11-20T13:00:20;11.00;;;1.80;;
27722;SDS011;15123;-37.794;175.246;2022-11-20T13:08:56;10.70;;;1.80;;
27722;SDS011;15123;-37.794;175.246;2022-11-20T13:11:41;9.93;;;1.67;;
27722;SDS011;15123;-37.794;175.246;2022-11-20T13:16:58;9.95;;;1.70;;
27722;SDS011;15123;-37.794;175.246;2022-11-20T13:19:35;9.68;;;1.63;;
27722;SDS011;15123;-37.794;175.246;2022-11-20T13:22:08;10.32;;;1.58;;
27722;SDS011;15123;-37.794;175.246;2022-11-20T13:24:39;9.48;;;1.35;;
27722;SDS011;15123;-37.794;175.246;2022-11-20T13:27:22;8.18;;;1.40;;
27722;SDS011;15123;-37.794;175.246;2022-11-20T13:32:30;7.95;;;1.52;;
27722;SDS011;15123;-37.794;175.246;2022-11-20T13:35:02;8.82;;;1.65;;
27722;SDS011;15123;-37.794;175.246;2022-11-20T13:37:38;9.10;;;1.38;;
27722;SDS011;15123;-37.794;175.246;2022-11-20T13:42:54;8.48;;;1.55;;
27722;SDS011;15123;-37.794;175.246;2022-11-20T13:45:53;9.68;;;1.45;;
27722;SDS011;15123;-37.794;175.246;2022-11-20T13:51:25;7.60;;;1.45;;
27722;SDS011;15123;-37.794;175.246;2022-11-20T13:54:54;9.40;;;1.40;;
27722;SDS011;15123;-37.794;175.246;2022-11-20T14:00:13;9.43;;;1.55;;
27722;SDS011;15123;-37.794;175.246;2022-11-20T14:02:52;8.98;;;1.40;;
27722;SDS011;15123;-37.794;175.246;2022-11-20T14:06:04;7.28;;;1.58;;
27722;SDS011;15123;-37.794;175.246;2022-11-20T14:08:44;12.43;;;1.60;;
27722;SDS011;15123;-37.794;175.246;2022-11-20T14:11:18;6.65;;;1.52;;
27722;SDS011;15123;-37.794;175.246;2022-11-20T14:16:48;10.63;;;1.60;;
27722;SDS011;15123;-37.794;175.246;2022-11-20T14:21:54;9.23;;;1.70;;
27722;SDS011;15123;-37.794;175.246;2022-11-20T14:24:47;10.30;;;1.60;;
27722;SDS011;15123;-37.794;175.246;2022-11-20T14:27:20;7.90;;;1.60;;
27722;SDS011;15123;-37.794;175.246;2022-11-20T14:29:51;11.32;;;1.58;;
27722;SDS011;15123;-37.794;175.246;2022-11-20T14:32:24;8.23;;;1.55;;
27722;SDS011;15123;-37.794;175.246;2022-11-20T14:35:01;8.82;;;1.50;;
27722;SDS011;15123;-37.794;175.246;2022-11-20T14:37:38;12.45;;;1.80;;
27722;SDS011;15123;-37.794;175.246;2022-11-20T14:40:22;8.25;;;1.70;;
27722;SDS011;15123;-37.794;175.246;2022-11-20T14:42:57;11.75;;;1.65;;
27722;SDS011;15123;-37.794;175.246;2022-11-20T14:45:28;10.73;;;1.50;;
27722;SDS011;15123;-37.794;175.246;2022-11-20T14:48:00;10.38;;;1.40;;
27722;SDS011;15123;-37.794;175.246;2022-11-20T14:50:31;9.00;;;1.50;;
27722;SDS011;15123;-37.794;175.246;2022-11-20T14:53:01;10.52;;;1.90;;
27722;SDS011;15123;-37.794;175.246;2022-11-20T14:58:23;9.73;;;1.95;;
27722;SDS011;15123;-37.794;175.246;2022-11-20T15:01:00;11.68;;;1.55;;
27722;SDS011;15123;-37.794;175.246;2022-11-20T15:03:36;11.15;;;1.60;;
27722;SDS011;15123;-37.794;175.246;2022-11-20T15:06:10;7.47;;;1.40;;
27722;SDS011;15123;-37.794;175.246;2022-11-20T15:08:50;9.63;;;1.73;;
27722;SDS011;15123;-37.794;175.246;2022-11-20T15:11:24;9.90;;;1.50;;
27722;SDS011;15123;-37.794;175.246;2022-11-20T15:14:06;13.73;;;2.10;;
27722;SDS011;15123;-37.794;175.246;2022-11-20T15:16:38;8.63;;;1.40;;
27722;SDS011;15123;-37.794;175.246;2022-11-20T15:19:16;12.55;;;1.73;;
27722;SDS011;15123;-37.794;175.246;2022-11-20T15:24:21;11.65;;;1.50;;
27722;SDS011;15123;-37.794;175.246;2022-11-20T15:26:53;9.93;;;1.52;;
27722;SDS011;15123;-37.794;175.246;2022-11-20T15:31:55;9.10;;;1.30;;
27722;SDS011;15123;-37.794;175.246;2022-11-20T15:34:26;10.00;;;1.33;;
27722;SDS011;15123;-37.794;175.246;2022-11-20T15:36:58;9.52;;;1.30;;
27722;SDS011;15123;-37.794;175.246;2022-11-20T15:39:29;8.98;;;1.45;;
27722;SDS011;15123;-37.794;175.246;2022-11-20T15:42:00;7.65;;;1.48;;
27722;SDS011;15123;-37.794;175.246;2022-11-20T15:44:31;10.98;;;1.80;;
27722;SDS011;15123;-37.794;175.246;2022-11-20T15:47:02;12.45;;;1.80;;
27722;SDS011;15123;-37.794;175.246;2022-11-20T15:49:32;11.63;;;2.03;;
27722;SDS011;15123;-37.794;175.246;2022-11-20T15:52:03;8.87;;;1.70;;
27722;SDS011;15123;-37.794;175.246;2022-11-20T15:54:38;10.02;;;1.63;;
27722;SDS011;15123;-37.794;175.246;2022-11-20T15:57:09;11.40;;;2.20;;
27722;SDS011;15123;-37.794;175.246;2022-11-20T15:59:40;8.75;;;2.00;;
27722;SDS011;15123;-37.794;175.246;2022-11-20T16:02:11;11.60;;;2.80;;
27722;SDS011;15123;-37.794;175.246;2022-11-20T16:04:48;13.10;;;3.53;;
27722;SDS011;15123;-37.794;175.246;2022-11-20T16:07:19;11.20;;;2.85;;
27722;SDS011;15123;-37.794;175.246;2022-11-20T16:09:50;12.65;;;2.58;;
27722;SDS011;15123;-37.794;175.246;2022-11-20T16:12:21;11.50;;;2.60;;
27722;SDS011;15123;-37.794;175.246;2022-11-20T16:18:02;10.82;;;2.45;;
27722;SDS011;15123;-37.794;175.246;2022-11-20T16:20:33;11.32;;;2.20;;
27722;SDS011;15123;-37.794;175.246;2022-11-20T16:23:04;9.70;;;1.80;;
27722;SDS011;15123;-37.794;175.246;2022-11-20T16:25:36;9.32;;;1.98;;
27722;SDS011;15123;-37.794;175.246;2022-11-20T16:28:07;10.77;;;2.22;;
27722;SDS011;15123;-37.794;175.246;2022-11-20T16:30:45;13.95;;;2.05;;
27722;SDS011;15123;-37.794;175.246;2022-11-20T16:33:16;13.00;;;2.00;;
27722;SDS011;15123;-37.794;175.246;2022-11-20T16:35:47;11.82;;;2.05;;
27722;SDS011;15123;-37.794;175.246;2022-11-20T16:38:18;11.00;;;1.80;;
27722;SDS011;15123;-37.794;175.246;2022-11-20T16:40:49;10.43;;;2.20;;
27722;SDS011;15123;-37.794;175.246;2022-11-20T16:43:20;8.65;;;1.90;;
27722;SDS011;15123;-37.794;175.246;2022-11-20T16:45:51;10.30;;;1.80;;
27722;SDS011;15123;-37.794;175.246;2022-11-20T16:48:22;11.47;;;1.83;;
27722;SDS011;15123;-37.794;175.246;2022-11-20T16:50:53;13.38;;;2.10;;
27722;SDS011;15123;-37.794;175.246;2022-11-20T16:53:24;11.18;;;2.10;;
27722;SDS011;15123;-37.794;175.246;2022-11-20T16:55:55;7.68;;;2.15;;
27722;SDS011;15123;-37.794;175.246;2022-11-20T16:58:25;11.80;;;2.00;;
27722;SDS011;15123;-37.794;175.246;2022-11-20T17:00:56;11.27;;;1.90;;
27722;SDS011;15123;-37.794;175.246;2022-11-20T17:03:36;10.98;;;1.80;;
27722;SDS011;15123;-37.794;175.246;2022-11-20T17:06:17;8.82;;;1.80;;
27722;SDS011;15123;-37.794;175.246;2022-11-20T17:08:50;8.57;;;1.92;;